sensor_id;sensor_type;location;lat;lon;timestamp;P1;durP1;ratioP1;P2;durP2;ratioP2
37131;SDS011;23035;50.032;21.978;2022-08-19T00:01:40;17.30;;;9.00;;
37131;SDS011;23035;50.032;21.978;2022-08-19T00:06:54;16.00;;;8.98;;
37131;SDS011;23035;50.032;21.978;2022-08-19T00:11:58;17.97;;;9.00;;
37131;SDS011;23035;50.032;21.978;2022-08-19T00:17:05;15.47;;;9.00;;
37131;SDS011;23035;50.032;21.978;2022-08-19T00:22:09;18.88;;;9.95;;
37131;SDS011;23035;50.032;21.978;2022-08-19T00:27:13;17.10;;;8.55;;
37131;SDS011;23035;50.032;21.978;2022-08-19T00:37:35;16.63;;;8.70;;
37131;SDS011;23035;50.032;21.978;2022-08-19T00:42:38;15.38;;;9.25;;
37131;SDS011;23035;50.032;21.978;2022-08-19T00:47:44;16.75;;;10.60;;
37131;SDS011;23035;50.032;21.978;2022-08-19T00:57:54;17.30;;;11.02;;
37131;SDS011;23035;50.032;21.978;2022-08-19T01:03:01;16.67;;;10.95;;
37131;SDS011;23035;50.032;21.978;2022-08-19T01:08:06;14.65;;;9.93;;
37131;SDS011;23035;50.032;21.978;2022-08-19T01:13:11;17.83;;;10.52;;
37131;SDS011;23035;50.032;21.978;2022-08-19T01:18:19;16.00;;;10.50;;
37131;SDS011;23035;50.032;21.978;2022-08-19T01:23:26;14.00;;;10.57;;
37131;SDS011;23035;50.032;21.978;2022-08-19T01:28:45;19.20;;;10.05;;
37131;SDS011;23035;50.032;21.978;2022-08-19T01:33:53;14.68;;;9.95;;
37131;SDS011;23035;50.032;21.978;2022-08-19T01:39:01;13.30;;;9.98;;
37131;SDS011;23035;50.032;21.978;2022-08-19T01:44:08;16.25;;;10.18;;
37131;SDS011;23035;50.032;21.978;2022-08-19T01:49:21;17.80;;;10.57;;
37131;SDS011;23035;50.032;21.978;2022-08-19T01:54:28;19.38;;;10.50;;
37131;SDS011;23035;50.032;21.978;2022-08-19T01:59:32;15.05;;;10.57;;
37131;SDS011;23035;50.032;21.978;2022-08-19T02:04:38;20.23;;;10.30;;
37131;SDS011;23035;50.032;21.978;2022-08-19T02:09:44;14.43;;;10.45;;
37131;SDS011;23035;50.032;21.978;2022-08-19T02:14:47;15.07;;;10.32;;
37131;SDS011;23035;50.032;21.978;2022-08-19T02:19:51;15.80;;;7.95;;
37131;SDS011;23035;50.032;21.978;2022-08-19T02:24:56;14.52;;;8.70;;
37131;SDS011;23035;50.032;21.978;2022-08-19T02:30:00;18.48;;;10.00;;
37131;SDS011;23035;50.032;21.978;2022-08-19T02:35:04;17.70;;;10.98;;
37131;SDS011;23035;50.032;21.978;2022-08-19T02:40:15;15.40;;;9.60;;
37131;SDS011;23035;50.032;21.978;2022-08-19T02:45:20;16.50;;;8.55;;
37131;SDS011;23035;50.032;21.978;2022-08-19T02:50:25;15.43;;;9.88;;
37131;SDS011;23035;50.032;21.978;2022-08-19T02:55:30;15.45;;;9.70;;
37131;SDS011;23035;50.032;21.978;2022-08-19T03:00:48;20.73;;;9.68;;
37131;SDS011;23035;50.032;21.978;2022-08-19T03:06:04;16.58;;;10.55;;
37131;SDS011;23035;50.032;21.978;2022-08-19T03:11:14;26.15;;;15.68;;
37131;SDS011;23035;50.032;21.978;2022-08-19T03:16:19;18.35;;;13.43;;
37131;SDS011;23035;50.032;21.978;2022-08-19T03:21:28;16.63;;;10.90;;
37131;SDS011;23035;50.032;21.978;2022-08-19T03:26:37;14.20;;;8.52;;
37131;SDS011;23035;50.032;21.978;2022-08-19T03:31:42;16.10;;;10.90;;
37131;SDS011;23035;50.032;21.978;2022-08-19T03:36:54;15.77;;;9.52;;
37131;SDS011;23035;50.032;21.978;2022-08-19T03:42:00;14.60;;;10.15;;
37131;SDS011;23035;50.032;21.978;2022-08-19T03:47:24;16.10;;;10.37;;
37131;SDS011;23035;50.032;21.978;2022-08-19T03:52:28;15.85;;;8.73;;
37131;SDS011;23035;50.032;21.978;2022-08-19T03:57:33;19.42;;;10.90;;
37131;SDS011;23035;50.032;21.978;2022-08-19T04:02:37;13.18;;;8.73;;
37131;SDS011;23035;50.032;21.978;2022-08-19T04:07:41;15.77;;;10.90;;
37131;SDS011;23035;50.032;21.978;2022-08-19T04:12:46;21.27;;;10.60;;
37131;SDS011;23035;50.032;21.978;2022-08-19T04:17:50;19.67;;;9.98;;
37131;SDS011;23035;50.032;21.978;2022-08-19T04:22:53;15.05;;;10.90;;
37131;SDS011;23035;50.032;21.978;2022-08-19T04:27:59;24.88;;;11.30;;
37131;SDS011;23035;50.032;21.978;2022-08-19T04:33:02;20.13;;;11.13;;
37131;SDS011;23035;50.032;21.978;2022-08-19T04:38:07;15.15;;;10.05;;
37131;SDS011;23035;50.032;21.978;2022-08-19T04:43:13;20.48;;;10.82;;
37131;SDS011;23035;50.032;21.978;2022-08-19T04:48:17;16.48;;;11.35;;
37131;SDS011;23035;50.032;21.978;2022-08-19T04:53:29;15.77;;;11.68;;
37131;SDS011;23035;50.032;21.978;2022-08-19T04:58:41;49.17;;;34.35;;
37131;SDS011;23035;50.032;21.978;2022-08-19T05:03:46;20.30;;;11.73;;
37131;SDS011;23035;50.032;21.978;2022-08-19T05:08:50;17.02;;;10.07;;
37131;SDS011;23035;50.032;21.978;2022-08-19T05:13:56;18.97;;;10.93;;
37131;SDS011;23035;50.032;21.978;2022-08-19T05:19:00;19.25;;;10.15;;
37131;SDS011;23035;50.032;21.978;2022-08-19T05:24:22;19.17;;;9.82;;
37131;SDS011;23035;50.032;21.978;2022-08-19T05:29:28;16.30;;;9.50;;
37131;SDS011;23035;50.032;21.978;2022-08-19T05:34:37;28.52;;;11.18;;
37131;SDS011;23035;50.032;21.978;2022-08-19T05:39:42;21.40;;;10.03;;
37131;SDS011;23035;50.032;21.978;2022-08-19T05:44:53;17.73;;;9.98;;
37131;SDS011;23035;50.032;21.978;2022-08-19T05:49:58;17.50;;;10.13;;
37131;SDS011;23035;50.032;21.978;2022-08-19T05:55:06;19.45;;;10.45;;
37131;SDS011;23035;50.032;21.978;2022-08-19T06:00:12;18.43;;;9.13;;
37131;SDS011;23035;50.032;21.978;2022-08-19T06:05:16;17.50;;;9.85;;
37131;SDS011;23035;50.032;21.978;2022-08-19T06:10:22;13.73;;;8.48;;
37131;SDS011;23035;50.032;21.978;2022-08-19T06:15:27;17.48;;;8.70;;
37131;SDS011;23035;50.032;21.978;2022-08-19T06:20:32;15.10;;;8.30;;
37131;SDS011;23035;50.032;21.978;2022-08-19T06:25:55;12.85;;;7.68;;
37131;SDS011;23035;50.032;21.978;2022-08-19T06:31:06;14.88;;;8.18;;
37131;SDS011;23035;50.032;21.978;2022-08-19T06:36:16;20.10;;;8.85;;
37131;SDS011;23035;50.032;21.978;2022-08-19T06:41:26;17.95;;;9.38;;
37131;SDS011;23035;50.032;21.978;2022-08-19T06:46:31;18.03;;;10.73;;
37131;SDS011;23035;50.032;21.978;2022-08-19T06:51:36;14.82;;;9.93;;
37131;SDS011;23035;50.032;21.978;2022-08-19T06:56:45;16.20;;;7.95;;
37131;SDS011;23035;50.032;21.978;2022-08-19T07:01:51;12.25;;;6.90;;
37131;SDS011;23035;50.032;21.978;2022-08-19T07:07:00;14.73;;;8.13;;
37131;SDS011;23035;50.032;21.978;2022-08-19T07:12:21;23.30;;;8.15;;
37131;SDS011;23035;50.032;21.978;2022-08-19T07:17:29;12.40;;;6.72;;
37131;SDS011;23035;50.032;21.978;2022-08-19T07:22:36;15.98;;;7.00;;
37131;SDS011;23035;50.032;21.978;2022-08-19T07:27:40;10.45;;;7.18;;
37131;SDS011;23035;50.032;21.978;2022-08-19T07:32:51;13.18;;;7.63;;
37131;SDS011;23035;50.032;21.978;2022-08-19T07:37:55;12.90;;;7.07;;
37131;SDS011;23035;50.032;21.978;2022-08-19T07:42:59;10.77;;;7.07;;
37131;SDS011;23035;50.032;21.978;2022-08-19T07:48:04;13.97;;;6.30;;
37131;SDS011;23035;50.032;21.978;2022-08-19T07:53:08;11.45;;;7.10;;
37131;SDS011;23035;50.032;21.978;2022-08-19T07:58:12;11.23;;;6.70;;
37131;SDS011;23035;50.032;21.978;2022-08-19T08:03:20;16.27;;;6.68;;
37131;SDS011;23035;50.032;21.978;2022-08-19T08:08:45;10.32;;;6.22;;
37131;SDS011;23035;50.032;21.978;2022-08-19T08:14:08;9.68;;;6.00;;
37131;SDS011;23035;50.032;21.978;2022-08-19T08:19:31;10.68;;;6.38;;
37131;SDS011;23035;50.032;21.978;2022-08-19T08:24:35;9.93;;;7.05;;
37131;SDS011;23035;50.032;21.978;2022-08-19T08:29:41;9.80;;;6.97;;
37131;SDS011;23035;50.032;21.978;2022-08-19T08:34:48;11.30;;;8.50;;
37131;SDS011;23035;50.032;21.978;2022-08-19T08:39:54;17.42;;;7.80;;
37131;SDS011;23035;50.032;21.978;2022-08-19T08:44:59;10.27;;;7.63;;
37131;SDS011;23035;50.032;21.978;2022-08-19T08:50:09;12.02;;;7.60;;
37131;SDS011;23035;50.032;21.978;2022-08-19T08:55:18;15.90;;;8.27;;
37131;SDS011;23035;50.032;21.978;2022-08-19T09:00:25;18.48;;;8.18;;
37131;SDS011;23035;50.032;21.978;2022-08-19T09:05:38;9.82;;;7.22;;
37131;SDS011;23035;50.032;21.978;2022-08-19T09:10:51;20.60;;;15.18;;
37131;SDS011;23035;50.032;21.978;2022-08-19T09:15:58;8.55;;;6.78;;
37131;SDS011;23035;50.032;21.978;2022-08-19T09:21:08;8.68;;;6.60;;
37131;SDS011;23035;50.032;21.978;2022-08-19T09:26:12;10.07;;;6.38;;
37131;SDS011;23035;50.032;21.978;2022-08-19T09:31:19;8.18;;;6.70;;
37131;SDS011;23035;50.032;21.978;2022-08-19T09:36:26;13.30;;;8.55;;
37131;SDS011;23035;50.032;21.978;2022-08-19T09:41:36;8.75;;;6.40;;
37131;SDS011;23035;50.032;21.978;2022-08-19T09:46:48;7.75;;;6.63;;
37131;SDS011;23035;50.032;21.978;2022-08-19T09:51:54;9.20;;;6.63;;
37131;SDS011;23035;50.032;21.978;2022-08-19T09:56:58;9.18;;;7.13;;
37131;SDS011;23035;50.032;21.978;2022-08-19T10:02:08;10.02;;;6.60;;
37131;SDS011;23035;50.032;21.978;2022-08-19T10:07:15;14.88;;;8.30;;
37131;SDS011;23035;50.032;21.978;2022-08-19T10:12:19;9.82;;;6.47;;
37131;SDS011;23035;50.032;21.978;2022-08-19T10:17:22;9.02;;;6.20;;
37131;SDS011;23035;50.032;21.978;2022-08-19T10:22:35;11.23;;;6.95;;
37131;SDS011;23035;50.032;21.978;2022-08-19T10:27:39;9.35;;;5.70;;
37131;SDS011;23035;50.032;21.978;2022-08-19T10:32:49;11.10;;;6.10;;
37131;SDS011;23035;50.032;21.978;2022-08-19T10:37:55;9.57;;;5.90;;
37131;SDS011;23035;50.032;21.978;2022-08-19T10:43:03;9.57;;;6.32;;
37131;SDS011;23035;50.032;21.978;2022-08-19T10:48:07;8.75;;;5.75;;
37131;SDS011;23035;50.032;21.978;2022-08-19T10:53:21;9.13;;;5.93;;
37131;SDS011;23035;50.032;21.978;2022-08-19T10:58:27;11.65;;;6.32;;
37131;SDS011;23035;50.032;21.978;2022-08-19T11:03:31;6.78;;;5.78;;
37131;SDS011;23035;50.032;21.978;2022-08-19T11:08:36;11.27;;;5.82;;
37131;SDS011;23035;50.032;21.978;2022-08-19T11:13:43;12.10;;;6.35;;
37131;SDS011;23035;50.032;21.978;2022-08-19T11:18:49;7.05;;;5.38;;
37131;SDS011;23035;50.032;21.978;2022-08-19T11:23:58;10.05;;;5.22;;
37131;SDS011;23035;50.032;21.978;2022-08-19T11:29:04;12.25;;;5.80;;
37131;SDS011;23035;50.032;21.978;2022-08-19T11:34:14;9.75;;;5.13;;
37131;SDS011;23035;50.032;21.978;2022-08-19T11:39:21;10.35;;;5.45;;
37131;SDS011;23035;50.032;21.978;2022-08-19T11:44:25;7.57;;;4.50;;
37131;SDS011;23035;50.032;21.978;2022-08-19T11:49:29;6.60;;;4.70;;
37131;SDS011;23035;50.032;21.978;2022-08-19T11:54:34;4.90;;;4.43;;
37131;SDS011;23035;50.032;21.978;2022-08-19T11:59:38;7.40;;;4.40;;
37131;SDS011;23035;50.032;21.978;2022-08-19T12:04:42;7.00;;;4.45;;
37131;SDS011;23035;50.032;21.978;2022-08-19T12:09:48;8.55;;;4.60;;
37131;SDS011;23035;50.032;21.978;2022-08-19T12:14:51;6.72;;;4.80;;
37131;SDS011;23035;50.032;21.978;2022-08-19T12:20:00;5.88;;;4.38;;
37131;SDS011;23035;50.032;21.978;2022-08-19T12:25:06;5.53;;;4.38;;
37131;SDS011;23035;50.032;21.978;2022-08-19T12:30:11;8.27;;;4.90;;
37131;SDS011;23035;50.032;21.978;2022-08-19T12:35:17;7.15;;;4.90;;
37131;SDS011;23035;50.032;21.978;2022-08-19T12:40:24;6.57;;;4.40;;
37131;SDS011;23035;50.032;21.978;2022-08-19T12:45:28;6.45;;;4.82;;
37131;SDS011;23035;50.032;21.978;2022-08-19T12:50:32;9.55;;;5.20;;
37131;SDS011;23035;50.032;21.978;2022-08-19T12:55:37;6.63;;;4.78;;
37131;SDS011;23035;50.032;21.978;2022-08-19T13:00:41;10.07;;;4.93;;
37131;SDS011;23035;50.032;21.978;2022-08-19T13:05:46;9.40;;;5.25;;
37131;SDS011;23035;50.032;21.978;2022-08-19T13:10:51;12.43;;;5.38;;
37131;SDS011;23035;50.032;21.978;2022-08-19T13:15:59;12.60;;;5.30;;
37131;SDS011;23035;50.032;21.978;2022-08-19T13:21:09;12.40;;;5.43;;
37131;SDS011;23035;50.032;21.978;2022-08-19T13:26:16;16.33;;;4.88;;
37131;SDS011;23035;50.032;21.978;2022-08-19T13:31:25;12.82;;;5.28;;
37131;SDS011;23035;50.032;21.978;2022-08-19T13:36:48;8.75;;;5.20;;
37131;SDS011;23035;50.032;21.978;2022-08-19T13:41:59;12.70;;;5.53;;
37131;SDS011;23035;50.032;21.978;2022-08-19T13:47:05;10.00;;;4.80;;
37131;SDS011;23035;50.032;21.978;2022-08-19T13:52:10;10.95;;;5.35;;
37131;SDS011;23035;50.032;21.978;2022-08-19T13:57:15;7.13;;;4.95;;
37131;SDS011;23035;50.032;21.978;2022-08-19T14:02:19;11.85;;;5.47;;
37131;SDS011;23035;50.032;21.978;2022-08-19T14:07:22;7.82;;;5.18;;
37131;SDS011;23035;50.032;21.978;2022-08-19T14:12:27;11.32;;;4.95;;
37131;SDS011;23035;50.032;21.978;2022-08-19T14:17:31;9.52;;;4.75;;
37131;SDS011;23035;50.032;21.978;2022-08-19T14:22:37;8.32;;;5.03;;
37131;SDS011;23035;50.032;21.978;2022-08-19T14:27:44;12.55;;;5.03;;
37131;SDS011;23035;50.032;21.978;2022-08-19T14:32:48;9.38;;;4.88;;
37131;SDS011;23035;50.032;21.978;2022-08-19T14:37:52;12.18;;;5.28;;
37131;SDS011;23035;50.032;21.978;2022-08-19T14:43:00;11.40;;;5.18;;
37131;SDS011;23035;50.032;21.978;2022-08-19T14:48:06;11.38;;;5.93;;
37131;SDS011;23035;50.032;21.978;2022-08-19T14:53:20;13.68;;;5.55;;
37131;SDS011;23035;50.032;21.978;2022-08-19T14:58:25;10.85;;;5.40;;
37131;SDS011;23035;50.032;21.978;2022-08-19T15:03:31;11.90;;;5.32;;
37131;SDS011;23035;50.032;21.978;2022-08-19T15:08:37;14.75;;;8.07;;
37131;SDS011;23035;50.032;21.978;2022-08-19T15:13:44;11.85;;;6.30;;
37131;SDS011;23035;50.032;21.978;2022-08-19T15:18:49;8.35;;;5.45;;
37131;SDS011;23035;50.032;21.978;2022-08-19T15:23:57;9.23;;;5.10;;
37131;SDS011;23035;50.032;21.978;2022-08-19T15:29:04;7.10;;;5.60;;
37131;SDS011;23035;50.032;21.978;2022-08-19T15:34:08;8.48;;;5.15;;
37131;SDS011;23035;50.032;21.978;2022-08-19T15:39:11;6.88;;;4.88;;
37131;SDS011;23035;50.032;21.978;2022-08-19T15:49:23;8.52;;;4.53;;
37131;SDS011;23035;50.032;21.978;2022-08-19T15:54:27;9.57;;;4.90;;
37131;SDS011;23035;50.032;21.978;2022-08-19T15:59:32;14.02;;;6.60;;
37131;SDS011;23035;50.032;21.978;2022-08-19T16:04:55;18.20;;;6.10;;
37131;SDS011;23035;50.032;21.978;2022-08-19T16:10:16;16.58;;;5.95;;
37131;SDS011;23035;50.032;21.978;2022-08-19T16:15:30;20.67;;;6.10;;
37131;SDS011;23035;50.032;21.978;2022-08-19T16:20:36;11.50;;;5.68;;
37131;SDS011;23035;50.032;21.978;2022-08-19T16:25:40;16.60;;;5.80;;
37131;SDS011;23035;50.032;21.978;2022-08-19T16:30:45;25.63;;;8.07;;
37131;SDS011;23035;50.032;21.978;2022-08-19T16:35:52;12.25;;;6.05;;
37131;SDS011;23035;50.032;21.978;2022-08-19T16:41:08;15.68;;;6.57;;
37131;SDS011;23035;50.032;21.978;2022-08-19T16:46:14;22.58;;;6.35;;
37131;SDS011;23035;50.032;21.978;2022-08-19T16:51:20;19.02;;;5.75;;
37131;SDS011;23035;50.032;21.978;2022-08-19T16:56:25;14.90;;;5.30;;
37131;SDS011;23035;50.032;21.978;2022-08-19T17:01:31;19.17;;;6.03;;
37131;SDS011;23035;50.032;21.978;2022-08-19T17:06:35;11.48;;;5.45;;
37131;SDS011;23035;50.032;21.978;2022-08-19T17:11:40;18.98;;;9.52;;
37131;SDS011;23035;50.032;21.978;2022-08-19T17:16:45;16.03;;;6.50;;
37131;SDS011;23035;50.032;21.978;2022-08-19T17:21:49;19.02;;;6.10;;
37131;SDS011;23035;50.032;21.978;2022-08-19T17:26:54;16.80;;;7.32;;
37131;SDS011;23035;50.032;21.978;2022-08-19T17:32:07;14.90;;;5.57;;
37131;SDS011;23035;50.032;21.978;2022-08-19T17:38:02;12.52;;;6.25;;
37131;SDS011;23035;50.032;21.978;2022-08-19T17:43:25;15.27;;;5.80;;
37131;SDS011;23035;50.032;21.978;2022-08-19T17:48:40;18.52;;;6.72;;
37131;SDS011;23035;50.032;21.978;2022-08-19T17:53:49;16.27;;;6.15;;
37131;SDS011;23035;50.032;21.978;2022-08-19T17:58:58;14.98;;;6.88;;
37131;SDS011;23035;50.032;21.978;2022-08-19T18:04:06;16.75;;;6.60;;
37131;SDS011;23035;50.032;21.978;2022-08-19T18:09:20;16.52;;;6.32;;
37131;SDS011;23035;50.032;21.978;2022-08-19T18:14:26;18.15;;;5.35;;
37131;SDS011;23035;50.032;21.978;2022-08-19T18:19:38;14.70;;;6.18;;
37131;SDS011;23035;50.032;21.978;2022-08-19T18:24:45;13.90;;;5.60;;
37131;SDS011;23035;50.032;21.978;2022-08-19T18:29:52;14.35;;;6.57;;
37131;SDS011;23035;50.032;21.978;2022-08-19T18:35:04;17.20;;;5.65;;
37131;SDS011;23035;50.032;21.978;2022-08-19T18:40:13;11.98;;;5.38;;
37131;SDS011;23035;50.032;21.978;2022-08-19T18:45:36;17.63;;;5.95;;
37131;SDS011;23035;50.032;21.978;2022-08-19T18:51:00;11.25;;;5.10;;
37131;SDS011;23035;50.032;21.978;2022-08-19T18:56:04;8.73;;;5.05;;
37131;SDS011;23035;50.032;21.978;2022-08-19T19:01:10;15.43;;;5.13;;
37131;SDS011;23035;50.032;21.978;2022-08-19T19:06:18;10.05;;;5.28;;
37131;SDS011;23035;50.032;21.978;2022-08-19T19:11:24;8.90;;;4.60;;
37131;SDS011;23035;50.032;21.978;2022-08-19T19:16:31;13.32;;;5.55;;
37131;SDS011;23035;50.032;21.978;2022-08-19T19:21:37;14.73;;;5.40;;
37131;SDS011;23035;50.032;21.978;2022-08-19T19:26:48;14.00;;;5.60;;
37131;SDS011;23035;50.032;21.978;2022-08-19T19:31:53;15.48;;;5.80;;
37131;SDS011;23035;50.032;21.978;2022-08-19T19:37:01;16.58;;;5.97;;
37131;SDS011;23035;50.032;21.978;2022-08-19T19:42:05;19.25;;;5.90;;
37131;SDS011;23035;50.032;21.978;2022-08-19T19:47:21;11.18;;;5.57;;
37131;SDS011;23035;50.032;21.978;2022-08-19T19:52:31;13.20;;;5.40;;
37131;SDS011;23035;50.032;21.978;2022-08-19T19:57:34;11.00;;;5.70;;
37131;SDS011;23035;50.032;21.978;2022-08-19T20:02:41;12.48;;;5.38;;
37131;SDS011;23035;50.032;21.978;2022-08-19T20:07:53;16.95;;;5.40;;
37131;SDS011;23035;50.032;21.978;2022-08-19T20:13:15;12.48;;;6.03;;
37131;SDS011;23035;50.032;21.978;2022-08-19T20:18:18;9.90;;;5.55;;
37131;SDS011;23035;50.032;21.978;2022-08-19T20:23:24;10.18;;;5.80;;
37131;SDS011;23035;50.032;21.978;2022-08-19T20:28:28;13.48;;;6.75;;
37131;SDS011;23035;50.032;21.978;2022-08-19T20:38:38;15.40;;;6.30;;
37131;SDS011;23035;50.032;21.978;2022-08-19T20:43:42;12.60;;;6.63;;
37131;SDS011;23035;50.032;21.978;2022-08-19T20:48:46;10.38;;;5.80;;
37131;SDS011;23035;50.032;21.978;2022-08-19T20:53:53;11.23;;;5.32;;
37131;SDS011;23035;50.032;21.978;2022-08-19T20:58:57;16.05;;;5.90;;
37131;SDS011;23035;50.032;21.978;2022-08-19T21:04:01;13.98;;;6.10;;
37131;SDS011;23035;50.032;21.978;2022-08-19T21:09:07;17.40;;;6.50;;
37131;SDS011;23035;50.032;21.978;2022-08-19T21:19:14;18.35;;;6.03;;
37131;SDS011;23035;50.032;21.978;2022-08-19T21:24:26;8.90;;;4.88;;
37131;SDS011;23035;50.032;21.978;2022-08-19T21:29:32;11.57;;;5.18;;
37131;SDS011;23035;50.032;21.978;2022-08-19T21:34:38;6.63;;;5.15;;
37131;SDS011;23035;50.032;21.978;2022-08-19T21:39:46;13.30;;;5.65;;
37131;SDS011;23035;50.032;21.978;2022-08-19T21:44:50;13.57;;;6.57;;
37131;SDS011;23035;50.032;21.978;2022-08-19T21:49:55;17.73;;;6.50;;
37131;SDS011;23035;50.032;21.978;2022-08-19T21:55:00;12.15;;;5.57;;
37131;SDS011;23035;50.032;21.978;2022-08-19T22:05:10;13.95;;;5.88;;
37131;SDS011;23035;50.032;21.978;2022-08-19T22:10:15;12.18;;;5.25;;
37131;SDS011;23035;50.032;21.978;2022-08-19T22:15:21;15.35;;;5.18;;
37131;SDS011;23035;50.032;21.978;2022-08-19T22:20:28;13.10;;;4.80;;
37131;SDS011;23035;50.032;21.978;2022-08-19T22:25:35;13.38;;;5.13;;
37131;SDS011;23035;50.032;21.978;2022-08-19T22:30:41;9.77;;;4.90;;
37131;SDS011;23035;50.032;21.978;2022-08-19T22:35:47;14.50;;;5.30;;
37131;SDS011;23035;50.032;21.978;2022-08-19T22:40:52;10.93;;;6.32;;
37131;SDS011;23035;50.032;21.978;2022-08-19T22:46:00;12.20;;;6.03;;
37131;SDS011;23035;50.032;21.978;2022-08-19T22:51:03;10.52;;;6.18;;
37131;SDS011;23035;50.032;21.978;2022-08-19T22:56:27;11.88;;;6.50;;
37131;SDS011;23035;50.032;21.978;2022-08-19T23:01:31;19.58;;;7.25;;
37131;SDS011;23035;50.032;21.978;2022-08-19T23:11:45;12.20;;;6.45;;
37131;SDS011;23035;50.032;21.978;2022-08-19T23:21:55;12.70;;;6.28;;
37131;SDS011;23035;50.032;21.978;2022-08-19T23:27:00;12.00;;;6.50;;
37131;SDS011;23035;50.032;21.978;2022-08-19T23:32:21;16.88;;;6.68;;
37131;SDS011;23035;50.032;21.978;2022-08-19T23:37:26;14.15;;;7.32;;
37131;SDS011;23035;50.032;21.978;2022-08-19T23:42:31;12.75;;;7.10;;
37131;SDS011;23035;50.032;21.978;2022-08-19T23:52:43;10.75;;;6.45;;
37131;SDS011;23035;50.032;21.978;2022-08-19T23:57:50;10.35;;;7.07;;
